createdAt,value
2023-05-15T00:01:51.978Z,14.20
2023-05-15T00:04:20.253Z,14.00
2023-05-15T00:06:49.042Z,14.23
2023-05-15T00:09:17.464Z,14.32
2023-05-15T00:11:45.604Z,15.52
2023-05-15T00:14:13.941Z,15.65
2023-05-15T00:16:42.462Z,14.30
2023-05-15T00:19:10.966Z,15.18
2023-05-15T00:21:39.225Z,15.38
2023-05-15T00:24:07.709Z,15.40
2023-05-15T00:26:37.059Z,15.35
2023-05-15T00:29:04.478Z,16.67
2023-05-15T00:31:33.748Z,15.82
2023-05-15T00:34:01.456Z,15.75
2023-05-15T00:36:29.809Z,16.85
2023-05-15T00:38:58.663Z,15.63
2023-05-15T00:41:28.999Z,15.82
2023-05-15T00:44:00.888Z,15.85
2023-05-15T00:46:33.391Z,15.32
2023-05-15T00:49:04.087Z,17.13
2023-05-15T00:51:33.727Z,16.05
2023-05-15T00:54:05.094Z,15.20
2023-05-15T00:56:35.830Z,15.93
2023-05-15T00:59:07.962Z,15.45
2023-05-15T01:01:38.236Z,15.98
2023-05-15T01:04:08.252Z,16.27
2023-05-15T01:06:38.526Z,15.43
2023-05-15T01:09:11.150Z,14.82
2023-05-15T01:11:43.612Z,14.20
2023-05-15T01:14:13.142Z,15.13
2023-05-15T01:16:42.640Z,15.85
2023-05-15T01:19:13.102Z,15.23
2023-05-15T01:22:04.229Z,16.52
2023-05-15T01:25:08.775Z,17.25
2023-05-15T01:27:51.750Z,16.25
2023-05-15T01:30:31.193Z,16.23
2023-05-15T01:33:18.674Z,16.42
2023-05-15T01:36:33.863Z,16.10
2023-05-15T01:39:07.894Z,16.25
2023-05-15T01:42:03.120Z,16.27
2023-05-15T01:44:41.442Z,16.95
2023-05-15T01:47:20.082Z,17.50
2023-05-15T01:49:57.729Z,16.40
2023-05-15T01:52:38.771Z,17.58
2023-05-15T01:55:11.164Z,17.75
2023-05-15T01:57:43.544Z,18.02
2023-05-15T02:00:16.088Z,18.60
2023-05-15T02:02:50.195Z,16.73
2023-05-15T02:05:23.287Z,17.95
2023-05-15T02:07:55.684Z,17.20
2023-05-15T02:10:27.048Z,16.65
2023-05-15T02:12:57.937Z,17.00
2023-05-15T02:15:30.341Z,18.40
2023-05-15T02:18:00.891Z,19.63
2023-05-15T02:20:31.083Z,18.15
2023-05-15T02:23:01.427Z,17.85
2023-05-15T02:26:25.965Z,17.65
2023-05-15T02:29:23.666Z,17.90
2023-05-15T02:32:26.852Z,18.53
2023-05-15T02:35:16.670Z,18.10
2023-05-15T02:37:55.783Z,18.52
2023-05-15T02:43:00.133Z,18.05
2023-05-15T02:45:29.409Z,20.33
2023-05-15T02:48:01.678Z,19.58
2023-05-15T02:50:31.472Z,18.33
2023-05-15T02:53:10.057Z,20.08
2023-05-15T02:55:40.494Z,19.63
2023-05-15T02:58:10.931Z,20.10
2023-05-15T03:00:41.028Z,19.20
2023-05-15T03:03:11.021Z,19.17
2023-05-15T03:05:40.898Z,20.05
2023-05-15T03:08:10.803Z,20.40
2023-05-15T03:10:40.915Z,20.38
2023-05-15T03:13:11.187Z,19.17
2023-05-15T03:15:43.616Z,20.40
2023-05-15T03:18:11.533Z,20.48
2023-05-15T03:20:41.480Z,20.23
2023-05-15T03:23:11.451Z,22.45
2023-05-15T03:25:41.518Z,21.13
2023-05-15T03:28:11.887Z,20.70
2023-05-15T03:30:45.706Z,21.30
2023-05-15T03:33:15.713Z,20.27
2023-05-15T03:35:46.032Z,19.92
2023-05-15T03:38:15.863Z,21.05
2023-05-15T03:40:46.136Z,21.00
2023-05-15T03:43:16.363Z,20.88
2023-05-15T03:45:46.455Z,19.92
2023-05-15T03:48:16.366Z,19.83
2023-05-15T03:50:47.080Z,18.92
2023-05-15T03:53:17.371Z,18.83
2023-05-15T03:55:47.486Z,20.13
2023-05-15T03:58:17.237Z,19.98
2023-05-15T04:00:47.216Z,20.05
2023-05-15T04:03:15.799Z,19.67
2023-05-15T04:05:44.428Z,20.20
2023-05-15T04:08:12.685Z,19.20
2023-05-15T04:10:41.233Z,19.65
2023-05-15T04:13:10.066Z,20.83
2023-05-15T04:15:38.923Z,21.40
2023-05-15T04:18:06.644Z,19.95
2023-05-15T04:20:35.794Z,20.35
2023-05-15T04:23:05.972Z,22.77
2023-05-15T04:25:33.385Z,23.85
2023-05-15T04:28:01.961Z,23.40
2023-05-15T04:30:30.227Z,22.83
2023-05-15T04:32:58.977Z,23.58
2023-05-15T04:35:27.811Z,22.88
2023-05-15T04:37:56.185Z,21.33
2023-05-15T04:40:24.575Z,22.88
2023-05-15T04:42:53.107Z,20.75
2023-05-15T04:45:21.766Z,22.90
2023-05-15T04:47:49.997Z,21.45
2023-05-15T04:50:18.392Z,21.00
2023-05-15T04:52:47.312Z,22.30
2023-05-15T04:55:15.832Z,22.45
2023-05-15T04:57:46.559Z,21.38
2023-05-15T05:00:16.425Z,21.40
2023-05-15T05:02:44.392Z,20.20
2023-05-15T05:05:14.882Z,20.65
2023-05-15T05:07:46.573Z,22.90
2023-05-15T05:10:17.047Z,22.25
2023-05-15T05:12:46.886Z,21.75
2023-05-15T05:15:16.815Z,21.02
2023-05-15T05:17:47.261Z,23.73
2023-05-15T05:20:17.344Z,23.85
2023-05-15T05:22:47.054Z,25.92
2023-05-15T05:25:15.454Z,26.58
2023-05-15T05:27:43.949Z,25.50
2023-05-15T05:30:13.164Z,27.70
2023-05-15T05:32:40.917Z,28.40
2023-05-15T05:35:09.893Z,28.48
2023-05-15T05:37:40.812Z,27.88
2023-05-15T05:40:11.010Z,27.20
2023-05-15T05:42:38.460Z,27.85
2023-05-15T05:45:08.207Z,26.65
2023-05-15T05:47:38.328Z,27.55
2023-05-15T05:50:08.464Z,26.65
2023-05-15T05:52:38.721Z,25.67
2023-05-15T05:55:10.384Z,25.95
2023-05-15T05:57:40.881Z,26.02
2023-05-15T06:00:12.967Z,29.33
2023-05-15T06:02:43.513Z,27.38
2023-05-15T06:05:14.851Z,26.35
2023-05-15T06:07:45.141Z,25.20
2023-05-15T06:10:13.202Z,25.20
2023-05-15T06:12:40.992Z,25.35
2023-05-15T06:15:09.795Z,23.83
2023-05-15T06:17:38.535Z,25.23
2023-05-15T06:20:08.885Z,24.27
2023-05-15T06:22:38.898Z,24.90
2023-05-15T06:25:13.934Z,25.45
2023-05-15T06:27:44.200Z,25.33
2023-05-15T06:30:15.062Z,27.35
2023-05-15T06:32:46.003Z,24.60
2023-05-15T06:35:16.315Z,25.05
2023-05-15T06:37:50.616Z,28.15
2023-05-15T06:40:21.656Z,24.73
2023-05-15T06:42:51.835Z,25.73
2023-05-15T06:45:22.055Z,26.45
2023-05-15T06:47:52.259Z,25.60
2023-05-15T06:50:22.602Z,25.38
2023-05-15T06:52:52.791Z,25.55
2023-05-15T06:55:23.163Z,26.13
2023-05-15T06:57:53.513Z,26.15
2023-05-15T07:00:23.753Z,24.63
2023-05-15T07:02:54.009Z,24.58
2023-05-15T07:05:24.325Z,24.92
2023-05-15T07:07:55.018Z,25.50
2023-05-15T07:10:25.535Z,24.65
2023-05-15T07:12:56.051Z,25.13
2023-05-15T07:15:26.553Z,24.23
2023-05-15T07:17:56.911Z,23.67
2023-05-15T07:20:30.298Z,23.20
2023-05-15T07:23:03.769Z,22.63
2023-05-15T07:25:33.996Z,22.63
2023-05-15T07:28:04.710Z,19.33
2023-05-15T07:30:34.968Z,19.98
2023-05-15T07:33:05.255Z,20.02
2023-05-15T07:35:35.672Z,19.13
2023-05-15T07:38:06.010Z,17.55
2023-05-15T07:40:36.448Z,18.92
2023-05-15T07:43:06.901Z,18.00
2023-05-15T07:45:37.653Z,16.90
2023-05-15T07:48:16.670Z,16.02
2023-05-15T07:50:48.527Z,17.52
2023-05-15T07:53:18.850Z,18.25
2023-05-15T07:55:49.208Z,17.25
2023-05-15T07:58:19.548Z,17.05
2023-05-15T08:00:49.910Z,16.10
2023-05-15T08:03:20.190Z,15.85
2023-05-15T08:05:48.599Z,15.73
2023-05-15T08:08:17.176Z,15.27
2023-05-15T08:10:46.063Z,15.48
2023-05-15T08:13:14.125Z,13.65
2023-05-15T08:15:43.588Z,14.38
2023-05-15T08:18:11.847Z,13.55
2023-05-15T08:20:39.639Z,12.43
2023-05-15T08:23:08.958Z,13.43
2023-05-15T08:25:36.468Z,13.15
2023-05-15T08:28:06.052Z,12.30
2023-05-15T08:30:33.446Z,11.18
2023-05-15T08:33:01.888Z,11.70
2023-05-15T08:35:30.328Z,11.73
2023-05-15T08:37:59.847Z,10.85
2023-05-15T08:43:17.148Z,11.38
2023-05-15T08:45:45.905Z,11.63
2023-05-15T08:48:21.902Z,10.45
2023-05-15T08:50:51.414Z,9.13
2023-05-15T08:53:21.375Z,8.43
2023-05-15T08:55:52.350Z,8.95
2023-05-15T08:58:26.153Z,8.88
2023-05-15T09:00:59.249Z,9.40
2023-05-15T09:03:29.705Z,7.85
2023-05-15T09:06:02.040Z,8.27
2023-05-15T09:08:34.561Z,8.45
2023-05-15T09:11:08.121Z,9.48
2023-05-15T09:13:38.302Z,7.72
2023-05-15T09:16:08.547Z,7.70
2023-05-15T09:18:41.119Z,8.38
2023-05-15T09:21:33.987Z,8.77
2023-05-15T09:24:19.288Z,8.20
2023-05-15T09:27:05.244Z,7.90
2023-05-15T09:29:39.282Z,8.52
2023-05-15T09:32:15.823Z,7.55
2023-05-15T09:34:46.533Z,8.43
2023-05-15T09:37:34.395Z,8.48
2023-05-15T09:40:11.454Z,8.70
2023-05-15T09:42:39.342Z,8.15
2023-05-15T09:45:18.757Z,7.63
2023-05-15T09:47:47.904Z,8.07
2023-05-15T09:50:23.827Z,7.80
2023-05-15T09:52:54.271Z,8.35
2023-05-15T09:55:24.837Z,8.80
2023-05-15T09:58:16.701Z,8.82
2023-05-15T10:00:49.621Z,8.38
2023-05-15T10:03:21.126Z,9.02
2023-05-15T10:06:01.430Z,8.50
2023-05-15T10:08:31.747Z,9.15
2023-05-15T10:11:04.247Z,7.90
2023-05-15T10:13:37.436Z,8.45
2023-05-15T10:16:08.610Z,8.75
2023-05-15T10:18:42.106Z,8.55
2023-05-15T10:21:18.442Z,9.60
2023-05-15T10:23:51.198Z,8.15
2023-05-15T10:26:34.140Z,7.68
2023-05-15T10:29:17.089Z,8.35
2023-05-15T10:31:50.652Z,7.03
2023-05-15T10:34:22.030Z,7.47
2023-05-15T10:36:52.769Z,6.82
2023-05-15T10:39:24.490Z,7.38
2023-05-15T10:41:55.998Z,8.13
2023-05-15T10:44:24.064Z,7.57
2023-05-15T10:46:56.057Z,7.07
2023-05-15T10:49:26.057Z,7.50
2023-05-15T10:51:56.290Z,7.80
2023-05-15T10:54:24.174Z,7.70
2023-05-15T10:56:57.353Z,7.32
2023-05-15T10:59:35.057Z,7.57
2023-05-15T11:02:39.560Z,8.70
2023-05-15T11:05:11.922Z,8.57
2023-05-15T11:07:42.430Z,7.55
2023-05-15T11:10:31.008Z,8.05
2023-05-15T11:13:03.206Z,8.25
2023-05-15T11:15:45.795Z,8.38
2023-05-15T11:18:15.916Z,7.10
2023-05-15T11:20:52.159Z,8.68
2023-05-15T11:23:23.892Z,7.07
2023-05-15T11:25:57.709Z,7.22
2023-05-15T11:28:31.288Z,6.70
2023-05-15T11:31:07.362Z,6.90
2023-05-15T11:33:40.802Z,6.68
2023-05-15T11:36:16.016Z,6.93
2023-05-15T11:38:51.365Z,6.72
2023-05-15T11:41:22.212Z,6.20
2023-05-15T11:43:51.178Z,6.40
2023-05-15T11:46:18.644Z,6.15
2023-05-15T11:48:48.227Z,5.63
2023-05-15T11:51:27.653Z,6.45
2023-05-15T11:53:58.314Z,6.38
2023-05-15T11:56:29.121Z,5.38
2023-05-15T11:59:03.893Z,5.50
2023-05-15T12:01:47.868Z,4.93
2023-05-15T12:04:19.839Z,5.05
2023-05-15T12:06:50.174Z,6.10
2023-05-15T12:09:22.729Z,5.93
2023-05-15T12:11:56.952Z,4.75
2023-05-15T12:14:31.965Z,5.05
2023-05-15T12:17:06.134Z,5.10
2023-05-15T12:19:38.902Z,4.85
2023-05-15T12:22:08.676Z,4.45
2023-05-15T12:24:39.982Z,4.43
2023-05-15T12:27:10.400Z,4.15
2023-05-15T12:29:43.042Z,3.80
2023-05-15T12:32:12.462Z,4.13
2023-05-15T12:34:42.390Z,3.90
2023-05-15T12:37:15.982Z,3.88
2023-05-15T12:39:54.734Z,3.70
2023-05-15T12:44:57.340Z,2.85
2023-05-15T12:47:28.529Z,2.97
2023-05-15T12:49:59.075Z,2.65
2023-05-15T12:52:29.657Z,2.40
2023-05-15T12:55:02.886Z,2.95
2023-05-15T12:57:31.671Z,3.17
2023-05-15T13:00:01.589Z,3.38
2023-05-15T13:02:31.611Z,3.05
2023-05-15T13:05:05.155Z,2.75
2023-05-15T13:07:34.662Z,3.30
2023-05-15T13:10:09.715Z,2.92
2023-05-15T13:12:45.002Z,3.22
2023-05-15T13:15:33.500Z,3.53
2023-05-15T13:18:07.371Z,3.55
2023-05-15T13:20:48.587Z,3.63
2023-05-15T13:23:24.267Z,3.72
2023-05-15T13:25:54.463Z,4.10
2023-05-15T13:28:24.614Z,3.47
2023-05-15T13:30:54.915Z,3.55
2023-05-15T13:33:25.633Z,3.60
2023-05-15T13:35:57.505Z,3.08
2023-05-15T13:38:27.651Z,3.85
2023-05-15T13:40:58.640Z,3.53
2023-05-15T13:43:28.901Z,3.97
2023-05-15T13:45:59.250Z,3.47
2023-05-15T13:48:29.443Z,3.63
2023-05-15T13:50:59.619Z,3.90
2023-05-15T13:56:06.093Z,4.28
2023-05-15T13:58:36.563Z,4.15
2023-05-15T14:01:07.492Z,4.28
2023-05-15T14:03:37.879Z,3.53
2023-05-15T14:06:09.372Z,2.70
2023-05-15T14:08:39.676Z,2.55
2023-05-15T14:11:09.842Z,2.78
2023-05-15T14:13:40.336Z,2.63
2023-05-15T14:16:10.476Z,2.50
2023-05-15T14:18:41.080Z,2.60
2023-05-15T14:21:11.387Z,2.95
2023-05-15T14:23:41.572Z,3.35
2023-05-15T14:26:11.835Z,3.78
2023-05-15T14:28:42.058Z,3.67
2023-05-15T14:31:10.923Z,4.00
2023-05-15T14:33:41.347Z,3.97
2023-05-15T14:36:11.288Z,4.30
2023-05-15T14:38:39.712Z,3.83
2023-05-15T14:41:08.290Z,4.13
2023-05-15T14:43:36.722Z,4.15
2023-05-15T14:46:05.540Z,4.32
2023-05-15T14:48:34.182Z,4.43
2023-05-15T14:51:02.728Z,3.58
2023-05-15T14:53:31.074Z,3.90
2023-05-15T14:56:01.307Z,3.35
2023-05-15T14:58:32.589Z,3.90
2023-05-15T15:01:03.850Z,3.70
2023-05-15T15:03:34.437Z,3.55
2023-05-15T15:06:05.102Z,3.22
2023-05-15T15:08:35.304Z,3.28
2023-05-15T15:11:06.538Z,2.90
2023-05-15T15:13:36.740Z,3.22
2023-05-15T15:16:08.332Z,2.95
2023-05-15T15:18:38.615Z,2.92
2023-05-15T15:21:09.449Z,2.80
2023-05-15T15:23:39.562Z,2.63
2023-05-15T15:26:09.730Z,2.63
2023-05-15T15:28:40.077Z,2.72
2023-05-15T15:31:11.225Z,3.15
2023-05-15T15:33:41.636Z,2.90
2023-05-15T15:36:11.924Z,2.85
2023-05-15T15:38:43.948Z,3.08
2023-05-15T15:41:14.547Z,3.58
2023-05-15T15:43:44.704Z,3.20
2023-05-15T15:46:15.137Z,3.13
2023-05-15T15:48:45.340Z,3.30
2023-05-15T15:51:18.587Z,3.33
2023-05-15T15:53:48.776Z,2.88
2023-05-15T15:56:19.070Z,2.90
2023-05-15T15:58:49.436Z,3.30
2023-05-15T16:01:17.977Z,3.28
2023-05-15T16:03:46.297Z,3.70
2023-05-15T16:06:14.595Z,3.42
2023-05-15T16:08:43.082Z,3.70
2023-05-15T16:11:11.722Z,3.13
2023-05-15T16:13:41.984Z,3.30
2023-05-15T16:16:10.699Z,3.53
2023-05-15T16:18:40.935Z,3.72
2023-05-15T16:21:09.367Z,3.50
2023-05-15T16:23:40.509Z,3.33
2023-05-15T16:26:11.438Z,3.20
2023-05-15T16:28:41.595Z,3.08
2023-05-15T16:31:11.950Z,3.17
2023-05-15T16:33:42.103Z,3.65
2023-05-15T16:36:12.243Z,3.45
2023-05-15T16:38:42.797Z,3.58
2023-05-15T16:41:13.066Z,3.28
2023-05-15T16:43:44.102Z,3.20
2023-05-15T16:46:14.493Z,3.63
2023-05-15T16:48:44.696Z,3.88
2023-05-15T16:51:15.048Z,4.22
2023-05-15T16:53:45.481Z,3.78
2023-05-15T16:56:15.694Z,3.90
2023-05-15T16:58:46.054Z,3.92
2023-05-15T17:01:16.522Z,4.40
2023-05-15T17:03:47.005Z,3.70
2023-05-15T17:06:17.358Z,3.50
2023-05-15T17:08:47.554Z,3.72
2023-05-15T17:11:17.723Z,4.65
2023-05-15T17:13:47.921Z,3.67
2023-05-15T17:16:18.097Z,3.97
2023-05-15T17:18:48.322Z,3.92
2023-05-15T17:21:18.596Z,4.30
2023-05-15T17:23:53.252Z,4.53
2023-05-15T17:26:23.980Z,4.72
2023-05-15T17:28:54.183Z,5.32
2023-05-15T17:31:24.513Z,5.05
2023-05-15T17:33:54.779Z,5.03
2023-05-15T17:36:24.953Z,4.72
2023-05-15T17:38:55.181Z,4.75
2023-05-15T17:41:25.987Z,5.18
2023-05-15T17:43:56.265Z,5.45
2023-05-15T17:46:26.475Z,4.80
2023-05-15T17:48:56.726Z,5.28
2023-05-15T17:51:27.068Z,5.38
2023-05-15T17:53:57.172Z,5.32
2023-05-15T17:56:28.141Z,5.97
2023-05-15T17:58:58.249Z,5.93
2023-05-15T18:01:28.614Z,6.05
2023-05-15T18:03:58.931Z,5.53
2023-05-15T18:06:29.311Z,6.25
2023-05-15T18:09:00.015Z,5.80
2023-05-15T18:11:28.100Z,5.22
2023-05-15T18:13:56.787Z,5.35
2023-05-15T18:16:25.292Z,6.18
2023-05-15T18:18:53.888Z,5.65
2023-05-15T18:21:22.206Z,6.43
2023-05-15T18:23:50.692Z,5.93
2023-05-15T18:26:19.178Z,5.47
2023-05-15T18:28:48.077Z,6.90
2023-05-15T18:31:16.629Z,6.50
2023-05-15T18:33:45.213Z,6.38
2023-05-15T18:36:13.410Z,6.38
2023-05-15T18:38:41.951Z,6.32
2023-05-15T18:41:10.234Z,6.63
2023-05-15T18:43:38.845Z,5.97
2023-05-15T18:46:07.382Z,6.35
2023-05-15T18:48:35.979Z,6.57
2023-05-15T18:51:04.664Z,7.07
2023-05-15T18:53:32.878Z,7.20
2023-05-15T18:56:01.203Z,6.95
2023-05-15T18:58:29.660Z,6.85
2023-05-15T19:00:58.194Z,6.70
2023-05-15T19:03:26.898Z,6.65
2023-05-15T19:05:57.323Z,7.55
2023-05-15T19:08:26.833Z,6.72
2023-05-15T19:10:55.279Z,7.38
2023-05-15T19:13:23.755Z,7.43
2023-05-15T19:15:53.927Z,7.82
2023-05-15T19:18:24.097Z,7.63
2023-05-15T19:20:54.482Z,6.78
2023-05-15T19:23:25.161Z,7.93
2023-05-15T19:25:55.343Z,7.38
2023-05-15T19:28:25.598Z,7.70
2023-05-15T19:30:55.908Z,8.27
2023-05-15T19:33:26.214Z,7.45
2023-05-15T19:35:56.432Z,7.97
2023-05-15T19:38:26.696Z,8.25
2023-05-15T19:40:57.010Z,8.02
2023-05-15T19:43:27.716Z,9.00
2023-05-15T19:45:58.004Z,8.68
2023-05-15T19:48:28.924Z,9.48
2023-05-15T19:50:59.110Z,8.98
2023-05-15T19:53:29.339Z,9.02
2023-05-15T19:55:59.494Z,10.43
2023-05-15T19:58:30.334Z,9.70
2023-05-15T20:01:00.483Z,10.55
2023-05-15T20:03:34.002Z,10.02
2023-05-15T20:06:04.372Z,9.85
2023-05-15T20:08:34.551Z,11.15
2023-05-15T20:11:05.012Z,10.30
2023-05-15T20:13:35.462Z,10.52
2023-05-15T20:16:10.872Z,10.55
2023-05-15T20:18:41.856Z,11.30
2023-05-15T20:21:12.153Z,9.60
2023-05-15T20:23:42.290Z,10.35
2023-05-15T20:26:12.456Z,10.80
2023-05-15T20:28:44.418Z,11.52
2023-05-15T20:31:15.693Z,10.75
2023-05-15T20:33:46.280Z,10.40
2023-05-15T20:36:16.886Z,11.35
2023-05-15T20:38:47.774Z,11.40
2023-05-15T20:41:18.327Z,10.75
2023-05-15T20:43:48.464Z,10.70
2023-05-15T20:46:18.828Z,11.27
2023-05-15T20:48:49.239Z,11.38
2023-05-15T20:51:17.675Z,10.65
2023-05-15T20:53:45.998Z,10.48
2023-05-15T20:56:14.314Z,11.00
2023-05-15T20:58:44.480Z,11.00
2023-05-15T21:01:15.562Z,10.73
2023-05-15T21:03:46.066Z,10.75
2023-05-15T21:06:16.379Z,10.23
2023-05-15T21:08:46.549Z,9.95
2023-05-15T21:11:16.775Z,10.60
2023-05-15T21:13:46.957Z,9.50
2023-05-15T21:16:17.133Z,10.35
2023-05-15T21:18:49.117Z,10.10
2023-05-15T21:21:19.732Z,10.90
2023-05-15T21:23:50.181Z,10.00
2023-05-15T21:26:20.359Z,10.43
2023-05-15T21:28:50.704Z,10.90
2023-05-15T21:31:20.937Z,10.40
2023-05-15T21:33:51.129Z,11.43
2023-05-15T21:36:22.067Z,11.02
2023-05-15T21:38:52.277Z,11.90
2023-05-15T21:41:22.437Z,12.88
2023-05-15T21:43:52.827Z,10.60
2023-05-15T21:46:23.961Z,10.05
2023-05-15T21:48:54.255Z,9.00
2023-05-15T21:51:24.603Z,10.10
2023-05-15T21:53:54.950Z,9.65
2023-05-15T21:56:25.252Z,9.63
2023-05-15T21:58:55.628Z,10.23
2023-05-15T22:01:25.982Z,10.00
2023-05-15T22:03:56.746Z,10.55
2023-05-15T22:06:27.113Z,9.90
2023-05-15T22:08:58.010Z,9.90
2023-05-15T22:11:28.140Z,10.15
2023-05-15T22:13:58.460Z,10.60
2023-05-15T22:16:28.819Z,10.25
2023-05-15T22:18:57.113Z,10.15
2023-05-15T22:21:25.650Z,10.75
2023-05-15T22:23:54.105Z,10.30
2023-05-15T22:26:23.734Z,10.15
2023-05-15T22:28:57.346Z,10.43
2023-05-15T22:31:28.727Z,10.32
2023-05-15T22:33:59.088Z,11.00
2023-05-15T22:36:31.064Z,10.23
2023-05-15T22:39:01.688Z,10.27
2023-05-15T22:41:32.465Z,10.18
2023-05-15T22:44:03.613Z,10.23
2023-05-15T22:46:33.980Z,10.68
2023-05-15T22:49:04.631Z,11.00
2023-05-15T22:51:35.103Z,11.27
2023-05-15T22:54:05.410Z,9.93
2023-05-15T22:56:35.673Z,11.75
2023-05-15T22:59:05.969Z,11.55
2023-05-15T23:01:36.139Z,11.45
2023-05-15T23:04:07.684Z,11.18
2023-05-15T23:06:38.555Z,12.68
2023-05-15T23:09:09.296Z,12.30
2023-05-15T23:11:39.584Z,12.32
2023-05-15T23:14:10.218Z,12.02
2023-05-15T23:16:40.597Z,10.82
2023-05-15T23:19:10.995Z,11.48
2023-05-15T23:21:41.275Z,11.80
2023-05-15T23:24:11.537Z,12.65
2023-05-15T23:26:41.724Z,11.90
2023-05-15T23:29:12.550Z,12.95
2023-05-15T23:31:45.749Z,12.50
2023-05-15T23:34:16.309Z,12.50
2023-05-15T23:36:46.554Z,13.05
2023-05-15T23:39:16.894Z,13.00
2023-05-15T23:41:47.090Z,13.38
2023-05-15T23:44:17.366Z,12.75
2023-05-15T23:46:47.671Z,12.63
2023-05-15T23:49:18.118Z,13.98
2023-05-15T23:51:48.324Z,15.02
2023-05-15T23:54:18.548Z,13.13
2023-05-15T23:56:48.751Z,14.35
2023-05-15T23:59:19.187Z,13.02
